Terminal Aerodrome Forecast
Issued by NWS Wilmington, OH

Current Version | Previous Version | Text Only | Print | Product List | Glossary Off
Versions: 1 2 3 4 5 6 7 8 9 10 11 12 13 14 15 16

000
FTUS41 KILN 211736
TAFILN
TAF
KILN 211736Z 2118/2218 30011KT P6SM SCT025 BKN250
     FM212100 34008KT P6SM VCSH SCT025 OVC090
     FM220300 01010G18KT P6SM -RA OVC060
     FM220700 04012G22KT P6SM -RA OVC022
     FM221200 05012G18KT 5SM -RA OVC015
     FM221500 05012G25KT P6SM -RA OVC015=

USA.gov is the U.S. government's official web portal to all federal, state and local government web resources and services.